createdAt,value
2018-07-30T00:02:03.931Z,20.85
2018-07-30T00:04:32.007Z,20.75
2018-07-30T00:07:00.064Z,20.65
2018-07-30T00:09:28.135Z,20.70
2018-07-30T00:11:56.278Z,20.72
2018-07-30T00:14:24.338Z,20.68
2018-07-30T00:16:52.503Z,20.60
2018-07-30T00:19:20.571Z,20.50
2018-07-30T00:21:48.720Z,20.53
2018-07-30T00:24:16.875Z,20.50
2018-07-30T00:26:44.891Z,20.52
2018-07-30T00:29:12.927Z,20.52
2018-07-30T00:31:40.999Z,20.51
2018-07-30T00:34:09.066Z,20.44
2018-07-30T00:36:37.142Z,20.37
2018-07-30T00:39:08.595Z,20.37
2018-07-30T00:41:36.698Z,20.33
2018-07-30T00:44:04.735Z,20.24
2018-07-30T00:46:32.784Z,20.33
2018-07-30T00:49:00.827Z,20.27
2018-07-30T00:51:29.021Z,20.29
2018-07-30T00:53:57.083Z,20.30
2018-07-30T00:56:25.150Z,20.15
2018-07-30T00:58:53.437Z,20.11
2018-07-30T01:01:21.524Z,20.12
2018-07-30T01:03:49.611Z,20.19
2018-07-30T01:06:17.657Z,20.12
2018-07-30T01:08:45.711Z,20.13
2018-07-30T01:11:13.764Z,20.02
2018-07-30T01:13:41.820Z,20.01
2018-07-30T01:16:09.871Z,20.09
2018-07-30T01:18:37.926Z,20.02
2018-07-30T01:21:06.164Z,20.02
2018-07-30T01:23:34.237Z,19.91
2018-07-30T01:26:07.716Z,19.92
2018-07-30T01:28:35.794Z,19.91
2018-07-30T01:31:03.839Z,19.82
2018-07-30T01:33:31.923Z,19.79
2018-07-30T01:35:59.971Z,19.61
2018-07-30T01:38:28.043Z,19.73
2018-07-30T01:40:56.105Z,19.77
2018-07-30T01:43:24.175Z,19.66
2018-07-30T01:45:52.232Z,19.63
2018-07-30T01:48:20.287Z,19.68
2018-07-30T01:50:48.319Z,19.57
2018-07-30T01:53:16.385Z,19.25
2018-07-30T01:55:44.441Z,19.20
2018-07-30T01:58:12.603Z,19.15
2018-07-30T02:00:40.663Z,19.09
2018-07-30T02:03:08.729Z,19.12
2018-07-30T02:05:36.787Z,19.11
2018-07-30T02:08:05.059Z,19.06
2018-07-30T02:10:33.127Z,19.15
2018-07-30T02:13:01.181Z,19.31
2018-07-30T02:15:29.222Z,19.28
2018-07-30T02:17:57.299Z,19.26
2018-07-30T02:20:25.427Z,19.28
2018-07-30T02:22:53.488Z,19.40
2018-07-30T02:25:21.567Z,19.33
2018-07-30T02:27:49.645Z,19.33
2018-07-30T02:30:17.693Z,19.24
2018-07-30T02:32:45.744Z,19.21
2018-07-30T02:35:13.968Z,19.22
2018-07-30T02:37:42.037Z,19.23
2018-07-30T02:40:10.205Z,19.22
2018-07-30T02:42:38.258Z,19.24
2018-07-30T02:45:06.375Z,19.28
2018-07-30T02:47:34.447Z,19.05
2018-07-30T02:50:02.780Z,18.89
2018-07-30T02:52:31.156Z,18.96
2018-07-30T02:54:59.212Z,18.98
2018-07-30T02:57:27.431Z,19.00
2018-07-30T02:59:55.480Z,18.93
2018-07-30T03:02:23.529Z,19.05
2018-07-30T03:04:51.579Z,19.01
2018-07-30T03:07:19.651Z,19.00
2018-07-30T03:09:47.895Z,18.91
2018-07-30T03:12:15.945Z,18.93
2018-07-30T03:14:44.040Z,19.04
2018-07-30T03:17:12.079Z,19.02
2018-07-30T03:19:40.164Z,19.11
2018-07-30T03:22:08.215Z,19.02
2018-07-30T03:24:36.323Z,18.98
2018-07-30T03:27:04.415Z,18.85
2018-07-30T03:29:32.482Z,18.69
2018-07-30T03:32:00.521Z,18.69
2018-07-30T03:34:28.599Z,18.73
2018-07-30T03:36:56.647Z,18.66
2018-07-30T03:39:24.707Z,18.27
2018-07-30T03:41:52.759Z,18.32
2018-07-30T03:44:20.893Z,18.36
2018-07-30T03:46:48.927Z,18.47
2018-07-30T03:49:16.998Z,18.43
2018-07-30T03:51:45.123Z,18.51
2018-07-30T03:54:13.195Z,18.47
2018-07-30T03:56:41.271Z,18.50
2018-07-30T03:59:09.475Z,18.61
2018-07-30T04:01:37.519Z,18.46
2018-07-30T04:04:05.850Z,18.33
2018-07-30T04:06:34.017Z,18.35
2018-07-30T04:09:02.140Z,18.43
2018-07-30T04:11:30.222Z,18.52
2018-07-30T04:13:58.283Z,18.51
2018-07-30T04:16:26.522Z,18.50
2018-07-30T04:18:54.584Z,18.44
2018-07-30T04:21:22.650Z,18.43
2018-07-30T04:23:50.714Z,18.33
2018-07-30T04:26:18.760Z,18.50
2018-07-30T04:28:46.811Z,18.50
2018-07-30T04:31:14.886Z,18.52
2018-07-30T04:33:42.926Z,18.53
2018-07-30T04:36:10.978Z,18.50
2018-07-30T04:38:39.047Z,18.44
2018-07-30T04:41:07.411Z,18.46
2018-07-30T04:43:35.534Z,18.46
2018-07-30T04:46:03.583Z,18.50
2018-07-30T04:48:31.657Z,18.60
2018-07-30T04:50:59.767Z,18.73
2018-07-30T04:53:27.809Z,18.95
2018-07-30T04:55:55.886Z,19.04
2018-07-30T04:58:23.931Z,19.20
2018-07-30T05:00:51.987Z,19.39
2018-07-30T05:03:20.154Z,19.51
2018-07-30T05:05:48.201Z,19.41
2018-07-30T05:08:16.300Z,19.44
2018-07-30T05:10:44.423Z,19.51
2018-07-30T05:13:12.503Z,19.57
2018-07-30T05:15:40.665Z,19.61
2018-07-30T05:18:08.715Z,19.73
2018-07-30T05:20:36.832Z,19.80
2018-07-30T05:23:04.908Z,19.86
2018-07-30T05:25:33.016Z,19.94
2018-07-30T05:28:01.123Z,20.01
2018-07-30T05:30:29.178Z,20.18
2018-07-30T05:32:57.323Z,20.32
2018-07-30T05:35:25.524Z,20.55
2018-07-30T05:37:53.575Z,20.97
2018-07-30T05:40:21.665Z,21.28
2018-07-30T05:42:49.787Z,21.62
2018-07-30T05:45:17.849Z,21.70
2018-07-30T05:47:46.240Z,21.75
2018-07-30T05:50:14.463Z,21.84
2018-07-30T05:52:42.759Z,22.01
2018-07-30T05:55:10.919Z,22.12
2018-07-30T05:57:39.031Z,22.85
2018-07-30T06:00:07.471Z,22.89
2018-07-30T06:02:35.600Z,22.88
2018-07-30T06:05:03.718Z,22.92
2018-07-30T06:07:31.823Z,22.95
2018-07-30T06:09:59.924Z,23.00
2018-07-30T06:12:27.963Z,23.25
2018-07-30T06:14:56.123Z,23.32
2018-07-30T06:17:24.291Z,23.39
2018-07-30T06:19:52.361Z,23.53
2018-07-30T06:22:20.445Z,23.71
2018-07-30T06:24:48.541Z,23.79
2018-07-30T06:27:16.708Z,23.82
2018-07-30T06:29:44.754Z,23.97
2018-07-30T06:32:12.871Z,24.04
2018-07-30T06:34:40.968Z,24.23
2018-07-30T06:37:10.472Z,24.37
2018-07-30T06:39:42.608Z,24.48
2018-07-30T06:42:10.764Z,24.50
2018-07-30T06:44:40.587Z,24.57
2018-07-30T06:47:10.892Z,24.53
2018-07-30T06:49:47.841Z,24.69
2018-07-30T06:52:16.844Z,24.69
2018-07-30T06:54:44.991Z,24.79
2018-07-30T06:57:13.059Z,24.76
2018-07-30T06:59:41.170Z,24.72
2018-07-30T07:02:09.320Z,24.99
2018-07-30T07:04:37.374Z,25.11
2018-07-30T07:07:05.454Z,25.18
2018-07-30T07:09:33.520Z,25.44
2018-07-30T07:12:01.601Z,25.56
2018-07-30T07:14:29.659Z,25.71
2018-07-30T07:16:57.823Z,25.54
2018-07-30T07:19:25.932Z,25.73
2018-07-30T07:21:54.062Z,25.81
2018-07-30T07:24:22.114Z,25.88
2018-07-30T07:26:50.192Z,25.89
2018-07-30T07:29:18.291Z,25.88
2018-07-30T07:31:46.375Z,26.01
2018-07-30T07:34:14.435Z,26.03
2018-07-30T07:36:42.519Z,26.07
2018-07-30T07:39:11.460Z,26.08
2018-07-30T07:41:39.783Z,26.26
2018-07-30T07:44:07.903Z,26.29
2018-07-30T07:46:36.116Z,26.36
2018-07-30T07:49:04.332Z,26.42
2018-07-30T07:51:32.515Z,26.40
2018-07-30T07:54:00.606Z,26.45
2018-07-30T07:56:28.683Z,26.47
2018-07-30T07:58:56.847Z,26.54
2018-07-30T08:01:24.898Z,26.58
2018-07-30T08:03:53.364Z,26.55
2018-07-30T08:06:21.589Z,26.78
2018-07-30T08:08:49.566Z,26.87
2018-07-30T08:11:17.639Z,26.87
2018-07-30T08:13:45.795Z,27.01
2018-07-30T08:16:13.932Z,27.03
2018-07-30T08:18:42.047Z,27.11
2018-07-30T08:21:10.135Z,27.03
2018-07-30T08:23:38.222Z,27.02
2018-07-30T08:26:06.327Z,27.07
2018-07-30T08:28:34.492Z,26.83
2018-07-30T08:31:02.614Z,27.02
2018-07-30T08:33:30.695Z,27.00
2018-07-30T08:35:58.779Z,27.11
2018-07-30T08:38:26.877Z,27.04
2018-07-30T08:40:54.949Z,27.22
2018-07-30T08:43:23.040Z,27.20
2018-07-30T08:45:51.171Z,27.38
2018-07-30T08:48:19.271Z,27.20
2018-07-30T08:50:47.552Z,27.25
2018-07-30T08:53:15.668Z,27.20
2018-07-30T08:55:43.810Z,27.26
2018-07-30T08:58:11.916Z,27.24
2018-07-30T09:00:40.028Z,27.56
2018-07-30T09:03:08.213Z,27.84
2018-07-30T09:05:36.547Z,27.88
2018-07-30T09:08:04.875Z,27.79
2018-07-30T09:10:32.997Z,27.63
2018-07-30T09:13:02.972Z,27.63
2018-07-30T09:15:31.860Z,27.62
2018-07-30T09:17:59.922Z,27.72
2018-07-30T09:20:28.071Z,27.97
2018-07-30T09:22:56.175Z,28.11
2018-07-30T09:25:24.292Z,28.11
2018-07-30T09:27:52.344Z,28.14
2018-07-30T09:30:20.431Z,28.49
2018-07-30T09:32:48.569Z,28.71
2018-07-30T09:35:16.723Z,28.83
2018-07-30T09:37:44.796Z,29.21
2018-07-30T09:40:12.901Z,29.36
2018-07-30T09:42:40.936Z,29.53
2018-07-30T09:45:08.983Z,29.66
2018-07-30T09:47:37.049Z,29.59
2018-07-30T09:50:05.431Z,29.22
2018-07-30T09:52:33.605Z,29.39
2018-07-30T09:55:01.663Z,29.25
2018-07-30T09:57:29.745Z,29.32
2018-07-30T09:59:57.782Z,29.39
2018-07-30T10:02:25.844Z,29.28
2018-07-30T10:04:53.906Z,29.36
2018-07-30T10:07:22.058Z,29.65
2018-07-30T10:09:50.079Z,29.65
2018-07-30T10:12:18.247Z,29.66
2018-07-30T10:14:46.301Z,29.79
2018-07-30T10:17:14.392Z,30.16
2018-07-30T10:19:42.484Z,30.49
2018-07-30T10:22:10.553Z,30.52
2018-07-30T10:24:38.613Z,30.27
2018-07-30T10:27:06.659Z,30.40
2018-07-30T10:29:34.917Z,30.43
2018-07-30T10:32:02.959Z,30.53
2018-07-30T10:34:31.086Z,30.73
2018-07-30T10:36:59.196Z,31.08
2018-07-30T10:39:27.223Z,30.98
2018-07-30T10:41:55.551Z,31.18
2018-07-30T10:44:23.830Z,30.88
2018-07-30T10:46:51.996Z,30.62
2018-07-30T10:49:20.138Z,30.68
2018-07-30T10:51:48.361Z,30.72
2018-07-30T10:54:16.508Z,30.71
2018-07-30T10:56:44.583Z,30.92
2018-07-30T10:59:12.647Z,30.90
2018-07-30T11:01:40.691Z,30.86
2018-07-30T11:04:08.770Z,31.39
2018-07-30T11:06:36.845Z,31.32
2018-07-30T11:09:07.513Z,31.73
2018-07-30T11:11:35.595Z,31.59
2018-07-30T11:14:03.664Z,31.53
2018-07-30T11:16:31.730Z,31.59
2018-07-30T11:18:59.770Z,31.89
2018-07-30T11:21:27.823Z,31.72
2018-07-30T11:23:56.021Z,32.13
2018-07-30T11:26:24.074Z,32.31
2018-07-30T11:28:52.188Z,32.38
2018-07-30T11:31:20.233Z,32.50
2018-07-30T11:33:48.306Z,32.54
2018-07-30T11:36:16.442Z,32.66
2018-07-30T11:38:44.520Z,32.81
2018-07-30T11:41:32.726Z,32.90
2018-07-30T11:44:16.142Z,32.86
2018-07-30T11:46:56.026Z,33.09
2018-07-30T11:52:20.009Z,33.34
2018-07-30T11:54:53.415Z,33.36
2018-07-30T11:57:40.420Z,33.50
2018-07-30T12:00:10.729Z,33.64
2018-07-30T12:02:39.838Z,33.71
2018-07-30T12:05:24.276Z,33.70
2018-07-30T12:08:20.274Z,33.43
2018-07-30T12:10:56.923Z,33.47
2018-07-30T12:13:48.240Z,33.38
2018-07-30T12:16:22.903Z,33.08
2018-07-30T12:19:06.755Z,33.09
2018-07-30T12:21:37.046Z,33.00
2018-07-30T12:28:25.220Z,33.43
2018-07-30T12:31:10.661Z,33.78
2018-07-30T12:34:02.323Z,33.99
2018-07-30T12:36:31.968Z,34.03
2018-07-30T12:39:17.462Z,34.21
2018-07-30T12:41:56.624Z,34.15
2018-07-30T12:45:13.736Z,34.17
2018-07-30T12:47:47.551Z,34.21
2018-07-30T12:50:29.215Z,33.87
2018-07-30T12:55:54.276Z,33.96
2018-07-30T12:58:28.560Z,34.15
2018-07-30T13:01:01.260Z,34.27
2018-07-30T13:03:31.327Z,34.27
2018-07-30T13:10:00.236Z,34.29
2018-07-30T13:12:31.496Z,34.28
2018-07-30T13:15:11.267Z,34.33
2018-07-30T13:17:58.663Z,34.41
2018-07-30T13:20:32.049Z,34.42
2018-07-30T13:23:20.182Z,34.41
2018-07-30T13:25:50.633Z,34.51
2018-07-30T13:31:29.436Z,34.83
2018-07-30T13:34:07.332Z,34.88
2018-07-30T13:36:35.478Z,35.09
2018-07-30T13:39:03.928Z,35.23
2018-07-30T13:41:32.015Z,35.14
2018-07-30T13:44:00.091Z,35.08
2018-07-30T13:46:28.218Z,35.34
2018-07-30T13:48:56.218Z,35.18
2018-07-30T13:51:24.322Z,35.33
2018-07-30T13:53:52.432Z,35.31
2018-07-30T13:56:20.483Z,35.27
2018-07-30T13:58:48.555Z,35.34
2018-07-30T14:01:16.647Z,35.43
2018-07-30T14:03:44.729Z,35.54
2018-07-30T14:06:12.932Z,35.14
2018-07-30T14:08:40.905Z,35.14
2018-07-30T14:11:09.190Z,35.26
2018-07-30T14:13:37.283Z,35.29
2018-07-30T14:16:05.427Z,35.22
2018-07-30T14:18:33.506Z,35.34
2018-07-30T14:21:01.571Z,35.32
2018-07-30T14:23:29.649Z,35.41
2018-07-30T14:25:57.721Z,35.17
2018-07-30T14:28:25.875Z,35.36
2018-07-30T14:30:53.890Z,35.36
2018-07-30T14:33:22.030Z,35.35
2018-07-30T14:35:50.091Z,35.28
2018-07-30T14:38:18.150Z,35.36
2018-07-30T14:40:46.205Z,35.34
2018-07-30T14:43:14.289Z,35.14
2018-07-30T14:45:42.328Z,35.29
2018-07-30T14:48:10.385Z,35.45
2018-07-30T14:50:38.583Z,35.47
2018-07-30T14:53:06.754Z,35.47
2018-07-30T14:55:34.856Z,35.41
2018-07-30T14:58:03.008Z,35.43
2018-07-30T15:00:31.130Z,35.34
2018-07-30T15:02:59.239Z,35.26
2018-07-30T15:05:27.367Z,35.29
2018-07-30T15:07:55.460Z,35.21
2018-07-30T15:10:23.569Z,35.21
2018-07-30T15:12:51.655Z,35.37
2018-07-30T15:15:19.719Z,35.28
2018-07-30T15:17:47.793Z,35.42
2018-07-30T15:20:15.846Z,35.64
2018-07-30T15:22:44.426Z,35.73
2018-07-30T15:25:12.589Z,35.54
2018-07-30T15:27:40.679Z,35.53
2018-07-30T15:30:08.776Z,35.56
2018-07-30T15:32:36.872Z,35.38
2018-07-30T15:35:04.963Z,35.24
2018-07-30T15:37:33.226Z,35.17
2018-07-30T15:40:01.540Z,35.41
2018-07-30T15:42:29.757Z,35.07
2018-07-30T15:44:57.922Z,35.12
2018-07-30T15:47:26.015Z,35.11
2018-07-30T15:49:54.083Z,34.99
2018-07-30T15:52:22.268Z,35.04
2018-07-30T15:54:50.516Z,34.96
2018-07-30T15:57:18.499Z,34.84
2018-07-30T15:59:46.623Z,34.72
2018-07-30T16:02:14.737Z,34.72
2018-07-30T16:04:46.141Z,34.66
2018-07-30T16:07:14.689Z,34.50
2018-07-30T16:09:42.803Z,34.77
2018-07-30T16:12:11.060Z,34.70
2018-07-30T16:14:39.094Z,34.77
2018-07-30T16:17:07.151Z,34.91
2018-07-30T16:19:35.247Z,34.95
2018-07-30T16:22:03.338Z,34.97
2018-07-30T16:24:31.608Z,35.13
2018-07-30T16:26:59.684Z,35.10
2018-07-30T16:29:27.746Z,35.05
2018-07-30T16:31:55.845Z,35.10
2018-07-30T16:34:23.967Z,35.18
2018-07-30T16:36:52.021Z,35.60
2018-07-30T16:39:20.091Z,35.74
2018-07-30T16:41:48.168Z,35.83
2018-07-30T16:44:16.274Z,35.71
2018-07-30T16:46:44.356Z,35.35
2018-07-30T16:49:12.406Z,35.43
2018-07-30T16:51:40.460Z,35.29
2018-07-30T16:54:08.531Z,35.21
2018-07-30T16:56:36.577Z,35.19
2018-07-30T16:59:04.671Z,35.53
2018-07-30T17:01:32.728Z,35.33
2018-07-30T17:04:00.822Z,35.61
2018-07-30T17:06:28.874Z,35.63
2018-07-30T17:08:56.982Z,35.61
2018-07-30T17:11:25.051Z,35.75
2018-07-30T17:13:53.184Z,35.89
2018-07-30T17:16:21.258Z,35.48
2018-07-30T17:18:49.342Z,35.69
2018-07-30T17:21:17.548Z,36.27
2018-07-30T17:23:45.671Z,36.49
2018-07-30T17:26:13.722Z,36.46
2018-07-30T17:28:41.803Z,36.57
2018-07-30T17:31:09.879Z,36.75
2018-07-30T17:33:38.062Z,36.87
2018-07-30T17:36:06.144Z,36.89
2018-07-30T17:38:34.226Z,36.54
2018-07-30T17:41:02.453Z,36.36
2018-07-30T17:43:30.523Z,36.03
2018-07-30T17:45:58.614Z,35.79
2018-07-30T17:48:26.681Z,35.50
2018-07-30T17:53:34.429Z,34.99
2018-07-30T17:56:14.875Z,34.77
2018-07-30T17:58:48.352Z,34.55
2018-07-30T18:01:17.554Z,34.33
2018-07-30T18:03:48.091Z,34.14
2018-07-30T18:06:16.986Z,33.94
2018-07-30T18:08:46.336Z,33.81
2018-07-30T18:11:16.743Z,33.73
2018-07-30T18:14:02.542Z,33.58
2018-07-30T18:19:07.877Z,33.25
2018-07-30T18:21:46.095Z,33.13
2018-07-30T18:24:14.896Z,33.00
2018-07-30T18:26:44.608Z,32.86
2018-07-30T18:29:12.947Z,32.79
2018-07-30T18:31:47.051Z,32.65
2018-07-30T18:34:22.486Z,32.52
2018-07-30T18:36:52.643Z,32.36
2018-07-30T18:39:22.646Z,32.24
2018-07-30T18:41:52.262Z,32.14
2018-07-30T18:44:32.803Z,31.99
2018-07-30T18:47:01.914Z,31.91
2018-07-30T18:49:30.701Z,31.78
2018-07-30T18:52:01.247Z,31.71
2018-07-30T18:54:32.213Z,31.60
2018-07-30T18:57:05.731Z,31.45
2018-07-30T18:59:39.143Z,31.33
2018-07-30T19:02:07.790Z,31.19
2018-07-30T19:04:37.873Z,31.08
2018-07-30T19:07:09.075Z,30.95
2018-07-30T19:09:37.270Z,30.84
2018-07-30T19:12:07.020Z,30.68
2018-07-30T19:14:35.219Z,30.56
2018-07-30T19:17:03.916Z,30.50
2018-07-30T19:19:33.682Z,30.33
2018-07-30T19:22:04.904Z,30.20
2018-07-30T19:24:36.065Z,30.05
2018-07-30T19:27:04.251Z,29.94
2018-07-30T19:29:33.551Z,29.88
2018-07-30T19:32:06.155Z,29.78
2018-07-30T19:34:34.397Z,29.54
2018-07-30T19:37:04.321Z,29.44
2018-07-30T19:39:34.262Z,29.32
2018-07-30T19:42:03.394Z,29.19
2018-07-30T19:44:39.306Z,29.03
2018-07-30T19:47:08.057Z,28.84
2018-07-30T19:49:42.271Z,28.56
2018-07-30T19:52:12.290Z,28.52
2018-07-30T19:54:52.690Z,28.48
2018-07-30T19:57:30.535Z,28.41
2018-07-30T20:00:04.435Z,28.26
2018-07-30T20:02:33.394Z,28.18
2018-07-30T20:05:09.063Z,28.02
2018-07-30T20:07:45.256Z,27.92
2018-07-30T20:10:17.025Z,27.53
2018-07-30T20:12:46.252Z,27.59
2018-07-30T20:15:27.154Z,27.65
2018-07-30T20:17:55.977Z,27.59
2018-07-30T20:20:45.899Z,27.46
2018-07-30T20:23:20.543Z,27.08
2018-07-30T20:28:40.740Z,26.95
2018-07-30T20:31:17.267Z,26.96
2018-07-30T20:33:47.838Z,26.89
2018-07-30T20:38:58.152Z,26.80
2018-07-30T20:41:29.710Z,26.54
2018-07-30T20:43:59.268Z,26.39
2018-07-30T20:46:27.783Z,26.42
2018-07-30T20:48:59.715Z,26.18
2018-07-30T20:51:30.140Z,26.16
2018-07-30T20:53:59.938Z,26.08
2018-07-30T20:56:29.924Z,26.10
2018-07-30T20:58:59.146Z,26.07
2018-07-30T21:01:31.042Z,26.10
2018-07-30T21:04:08.744Z,26.06
2018-07-30T21:06:42.322Z,25.99
2018-07-30T21:11:55.611Z,25.95
2018-07-30T21:14:47.724Z,25.93
2018-07-30T21:17:17.690Z,25.80
2018-07-30T21:19:52.660Z,25.56
2018-07-30T21:22:20.999Z,25.35
2018-07-30T21:25:23.836Z,25.38
2018-07-30T21:28:19.568Z,25.14
2018-07-30T21:33:47.595Z,25.18
2018-07-30T21:36:24.589Z,25.17
2018-07-30T21:38:57.379Z,25.24
2018-07-30T21:41:33.376Z,25.16
2018-07-30T21:44:10.944Z,24.93
2018-07-30T21:46:41.703Z,25.05
2018-07-30T21:49:09.769Z,24.76
2018-07-30T21:51:37.836Z,24.64
2018-07-30T21:54:06.149Z,24.63
2018-07-30T21:56:34.148Z,24.74
2018-07-30T21:59:02.281Z,24.66
2018-07-30T22:01:30.339Z,24.68
2018-07-30T22:03:59.478Z,24.70
2018-07-30T22:06:27.543Z,24.72
2018-07-30T22:08:57.237Z,24.61
2018-07-30T22:11:25.546Z,24.61
2018-07-30T22:13:53.623Z,24.49
2018-07-30T22:16:21.702Z,24.25
2018-07-30T22:18:49.783Z,24.36
2018-07-30T22:21:17.924Z,24.35
2018-07-30T22:23:45.990Z,24.21
2018-07-30T22:26:14.060Z,24.21
2018-07-30T22:28:42.181Z,24.05
2018-07-30T22:31:10.308Z,24.01
2018-07-30T22:33:38.415Z,24.09
2018-07-30T22:36:06.487Z,24.09
2018-07-30T22:38:34.531Z,24.05
2018-07-30T22:41:02.651Z,23.91
2018-07-30T22:43:30.745Z,23.74
2018-07-30T22:45:58.891Z,23.84
2018-07-30T22:48:26.930Z,23.80
2018-07-30T22:50:55.427Z,23.76
2018-07-30T22:53:23.494Z,23.71
2018-07-30T22:55:51.603Z,23.63
2018-07-30T22:58:19.671Z,23.55
2018-07-30T23:00:48.674Z,23.67
2018-07-30T23:03:16.753Z,23.46
2018-07-30T23:05:44.787Z,23.47
2018-07-30T23:08:12.849Z,23.42
2018-07-30T23:10:41.740Z,23.34
2018-07-30T23:13:09.793Z,23.32
2018-07-30T23:15:37.951Z,23.36
2018-07-30T23:18:06.044Z,23.35
2018-07-30T23:20:34.207Z,23.37
2018-07-30T23:23:02.305Z,23.25
2018-07-30T23:25:30.395Z,23.17
2018-07-30T23:27:58.518Z,23.08
2018-07-30T23:30:26.576Z,23.03
2018-07-30T23:32:54.651Z,23.05
2018-07-30T23:35:22.715Z,23.05
2018-07-30T23:37:50.985Z,23.08
2018-07-30T23:40:19.070Z,22.92
2018-07-30T23:42:47.227Z,22.88
2018-07-30T23:45:15.292Z,22.79
2018-07-30T23:47:43.357Z,22.68
2018-07-30T23:50:11.431Z,22.62
2018-07-30T23:52:39.494Z,22.56
2018-07-30T23:55:07.637Z,22.51
2018-07-30T23:57:35.622Z,22.54
